createdAt,value
2018-03-30T00:00:00.653Z,6.40
2018-03-30T00:02:27.429Z,6.50
2018-03-30T00:04:54.401Z,6.40
2018-03-30T00:07:21.321Z,6.40
2018-03-30T00:09:56.520Z,6.40
2018-03-30T00:12:22.786Z,6.40
2018-03-30T00:14:50.474Z,6.30
2018-03-30T00:17:18.136Z,6.40
2018-03-30T00:19:44.411Z,6.30
2018-03-30T00:22:10.658Z,6.40
2018-03-30T00:24:36.940Z,6.40
2018-03-30T00:27:03.915Z,6.30
2018-03-30T00:29:30.473Z,6.30
2018-03-30T00:31:57.289Z,6.30
2018-03-30T00:34:24.289Z,6.30
2018-03-30T00:36:50.609Z,6.30
2018-03-30T00:39:16.875Z,6.30
2018-03-30T00:41:43.135Z,6.30
2018-03-30T00:44:11.024Z,6.30
2018-03-30T00:46:38.014Z,6.40
2018-03-30T00:49:05.071Z,6.30
2018-03-30T00:51:31.851Z,6.30
2018-03-30T00:53:58.108Z,6.30
2018-03-30T00:56:25.545Z,6.30
2018-03-30T00:58:52.090Z,6.30
2018-03-30T01:01:18.949Z,6.40
2018-03-30T01:03:46.715Z,6.40
2018-03-30T01:06:14.376Z,6.40
2018-03-30T01:08:40.627Z,6.40
2018-03-30T01:11:09.516Z,6.40
2018-03-30T01:13:37.281Z,6.40
2018-03-30T01:16:04.300Z,6.40
2018-03-30T01:18:30.569Z,6.40
2018-03-30T01:20:57.682Z,6.40
2018-03-30T01:23:23.940Z,6.40
2018-03-30T01:25:51.128Z,6.40
2018-03-30T01:28:18.070Z,6.40
2018-03-30T01:30:45.095Z,6.40
2018-03-30T01:33:12.089Z,6.40
2018-03-30T01:35:38.713Z,6.40
2018-03-30T01:38:05.706Z,6.40
2018-03-30T01:40:32.038Z,6.50
2018-03-30T01:42:58.651Z,6.40
2018-03-30T01:45:26.220Z,6.50
2018-03-30T01:47:53.835Z,6.50
2018-03-30T01:50:20.521Z,6.50
2018-03-30T01:52:47.515Z,6.50
2018-03-30T01:55:14.210Z,6.50
2018-03-30T01:57:41.262Z,6.50
2018-03-30T02:00:08.971Z,6.50
2018-03-30T02:02:35.561Z,6.50
2018-03-30T02:05:01.930Z,6.50
2018-03-30T02:07:28.768Z,6.50
2018-03-30T02:09:55.761Z,6.50
2018-03-30T02:12:22.562Z,6.50
2018-03-30T02:14:50.030Z,6.50
2018-03-30T02:17:17.299Z,6.40
2018-03-30T02:19:43.545Z,6.40
2018-03-30T02:22:09.820Z,6.40
2018-03-30T02:24:36.824Z,6.30
2018-03-30T02:27:03.509Z,6.30
2018-03-30T02:29:29.765Z,6.30
2018-03-30T02:31:56.018Z,6.20
2018-03-30T02:34:23.379Z,6.20
2018-03-30T02:36:50.362Z,6.10
2018-03-30T02:39:16.732Z,6.10
2018-03-30T02:41:43.312Z,6.00
2018-03-30T02:44:10.074Z,6.00
2018-03-30T02:46:36.328Z,6.10
2018-03-30T02:49:03.001Z,6.10
2018-03-30T02:51:29.671Z,6.10
2018-03-30T02:53:57.083Z,6.00
2018-03-30T02:56:23.334Z,6.00
2018-03-30T02:58:49.604Z,6.10
2018-03-30T03:01:16.597Z,6.10
2018-03-30T03:03:43.497Z,6.10
2018-03-30T03:06:10.458Z,6.20
2018-03-30T03:08:38.225Z,6.20
2018-03-30T03:11:05.229Z,6.20
2018-03-30T03:13:32.163Z,6.20
2018-03-30T03:15:58.409Z,6.20
2018-03-30T03:18:24.653Z,6.30
2018-03-30T03:20:51.545Z,6.30
2018-03-30T03:23:19.310Z,6.30
2018-03-30T03:25:46.294Z,6.40
2018-03-30T03:28:12.547Z,6.40
2018-03-30T03:30:38.881Z,6.40
2018-03-30T03:33:05.120Z,6.40
2018-03-30T03:35:31.460Z,6.40
2018-03-30T03:37:57.736Z,6.40
2018-03-30T03:40:23.987Z,6.40
2018-03-30T03:42:51.011Z,6.40
2018-03-30T03:45:17.646Z,6.40
2018-03-30T03:47:45.453Z,6.40
2018-03-30T03:50:13.216Z,6.40
2018-03-30T03:52:40.666Z,6.40
2018-03-30T03:55:07.662Z,6.50
2018-03-30T03:57:33.918Z,6.50
2018-03-30T04:00:15.434Z,6.50
2018-03-30T04:02:42.186Z,6.50
2018-03-30T04:05:09.177Z,6.40
2018-03-30T04:07:35.946Z,6.40
2018-03-30T04:10:02.211Z,6.40
2018-03-30T04:12:29.222Z,6.30
2018-03-30T04:14:56.616Z,6.30
2018-03-30T04:17:23.531Z,6.20
2018-03-30T04:19:50.228Z,6.20
2018-03-30T04:22:16.858Z,6.10
2018-03-30T04:24:43.102Z,6.20
2018-03-30T04:27:10.128Z,6.20
2018-03-30T04:29:36.362Z,6.20
2018-03-30T04:32:02.644Z,6.20
2018-03-30T04:34:28.988Z,6.20
2018-03-30T04:36:55.603Z,6.20
2018-03-30T04:39:23.654Z,6.20
2018-03-30T04:41:49.894Z,6.20
2018-03-30T04:44:16.978Z,6.20
2018-03-30T04:46:44.326Z,6.30
2018-03-30T04:49:11.334Z,6.30
2018-03-30T04:51:38.238Z,6.30
2018-03-30T04:54:05.234Z,6.20
2018-03-30T04:56:31.509Z,6.20
2018-03-30T04:58:58.822Z,6.20
2018-03-30T05:01:25.105Z,6.20
2018-03-30T05:03:52.570Z,6.30
2018-03-30T05:06:20.138Z,6.30
2018-03-30T05:08:47.116Z,6.40
2018-03-30T05:11:13.371Z,6.30
2018-03-30T05:13:40.322Z,6.40
2018-03-30T05:16:06.954Z,6.30
2018-03-30T05:18:33.647Z,6.40
2018-03-30T05:21:00.014Z,6.40
2018-03-30T05:23:26.269Z,6.40
2018-03-30T05:25:52.734Z,6.50
2018-03-30T05:28:18.982Z,6.50
2018-03-30T05:30:45.381Z,6.50
2018-03-30T05:33:11.934Z,6.50
2018-03-30T05:35:38.179Z,6.60
2018-03-30T05:38:04.439Z,6.60
2018-03-30T05:40:31.298Z,6.60
2018-03-30T05:42:57.643Z,6.70
2018-03-30T05:45:25.070Z,6.60
2018-03-30T05:47:51.941Z,6.70
2018-03-30T05:50:18.694Z,6.70
2018-03-30T05:52:46.258Z,6.80
2018-03-30T05:55:13.280Z,6.80
2018-03-30T05:57:39.523Z,6.80
2018-03-30T06:00:06.957Z,6.80
2018-03-30T06:02:33.758Z,6.80
2018-03-30T06:05:00.813Z,6.90
2018-03-30T06:07:28.477Z,7.00
2018-03-30T06:09:55.451Z,7.00
2018-03-30T06:12:21.732Z,7.00
2018-03-30T06:14:48.550Z,7.10
2018-03-30T06:17:15.122Z,7.20
2018-03-30T06:19:41.378Z,7.20
2018-03-30T06:22:07.621Z,7.30
2018-03-30T06:24:34.975Z,7.30
2018-03-30T06:27:03.546Z,7.30
2018-03-30T06:29:29.790Z,7.30
2018-03-30T06:31:56.071Z,7.30
2018-03-30T06:34:22.683Z,7.40
2018-03-30T06:36:49.674Z,7.40
2018-03-30T06:39:16.045Z,7.40
2018-03-30T06:41:42.594Z,7.50
2018-03-30T06:44:10.622Z,7.50
2018-03-30T06:46:37.998Z,7.50
2018-03-30T06:49:04.242Z,7.60
2018-03-30T06:51:31.028Z,7.70
2018-03-30T06:53:58.014Z,7.70
2018-03-30T06:56:24.265Z,7.70
2018-03-30T06:58:50.531Z,7.70
2018-03-30T07:01:17.090Z,7.80
2018-03-30T07:03:44.170Z,8.00
2018-03-30T07:06:10.762Z,8.00
2018-03-30T07:08:37.010Z,8.10
2018-03-30T07:11:04.168Z,8.20
2018-03-30T07:13:32.081Z,8.30
2018-03-30T07:15:58.333Z,8.20
2018-03-30T07:18:24.586Z,8.40
2018-03-30T07:20:51.115Z,8.40
2018-03-30T07:23:18.318Z,8.50
2018-03-30T07:25:45.299Z,8.50
2018-03-30T07:28:11.549Z,8.50
2018-03-30T07:30:37.827Z,8.60
2018-03-30T07:33:04.913Z,8.60
2018-03-30T07:35:31.258Z,8.60
2018-03-30T07:37:57.513Z,8.70
2018-03-30T07:40:23.770Z,8.80
2018-03-30T07:42:50.010Z,8.80
2018-03-30T07:45:16.638Z,8.90
2018-03-30T07:47:43.535Z,8.90
2018-03-30T07:50:10.282Z,9.00
2018-03-30T07:52:36.530Z,9.10
2018-03-30T07:55:02.837Z,9.20
2018-03-30T07:57:30.376Z,9.30
2018-03-30T07:59:56.618Z,9.30
2018-03-30T08:02:22.876Z,9.40
2018-03-30T08:04:50.226Z,9.60
2018-03-30T08:07:17.721Z,9.60
2018-03-30T08:09:44.333Z,9.60
2018-03-30T08:12:11.785Z,9.80
2018-03-30T08:14:38.838Z,9.80
2018-03-30T08:17:05.220Z,9.90
2018-03-30T08:19:31.487Z,10.00
2018-03-30T08:21:57.765Z,10.10
2018-03-30T08:24:24.796Z,10.20
2018-03-30T08:26:51.877Z,10.20
2018-03-30T08:29:18.412Z,10.20
2018-03-30T08:31:44.677Z,10.30
2018-03-30T08:34:10.914Z,10.40
2018-03-30T08:36:37.311Z,10.40
2018-03-30T08:39:05.459Z,10.50
2018-03-30T08:41:31.709Z,10.50
2018-03-30T08:43:59.178Z,10.60
2018-03-30T08:46:26.854Z,10.80
2018-03-30T08:48:54.186Z,10.90
2018-03-30T08:51:21.170Z,10.80
2018-03-30T08:53:48.163Z,10.90
2018-03-30T08:56:14.859Z,10.90
2018-03-30T08:58:41.848Z,11.10
2018-03-30T09:01:08.278Z,11.00
2018-03-30T09:03:35.205Z,11.10
2018-03-30T09:06:03.164Z,11.30
2018-03-30T09:08:30.851Z,11.30
2018-03-30T09:10:57.834Z,11.30
2018-03-30T09:13:24.077Z,11.40
2018-03-30T09:15:50.344Z,11.40
2018-03-30T09:18:16.596Z,11.40
2018-03-30T09:20:43.670Z,11.60
2018-03-30T09:23:11.009Z,11.60
2018-03-30T09:25:38.002Z,11.70
2018-03-30T09:28:04.251Z,11.70
2018-03-30T09:30:30.827Z,11.70
2018-03-30T09:32:57.819Z,11.90
2018-03-30T09:35:24.180Z,11.80
2018-03-30T09:37:50.692Z,11.90
2018-03-30T09:40:16.942Z,12.00
2018-03-30T09:42:43.204Z,12.10
2018-03-30T09:45:09.834Z,12.10
2018-03-30T09:47:36.715Z,12.20
2018-03-30T09:50:03.573Z,12.30
2018-03-30T09:52:31.236Z,12.50
2018-03-30T09:54:58.230Z,12.60
2018-03-30T09:57:24.491Z,12.50
2018-03-30T09:59:51.066Z,12.60
2018-03-30T10:02:19.863Z,12.60
2018-03-30T10:04:53.468Z,12.70
2018-03-30T10:07:20.907Z,12.70
2018-03-30T10:09:47.166Z,12.70
2018-03-30T10:12:14.147Z,12.90
2018-03-30T10:14:40.647Z,12.80
2018-03-30T10:17:07.675Z,12.90
2018-03-30T10:19:34.003Z,12.90
2018-03-30T10:22:00.579Z,13.00
2018-03-30T10:24:27.572Z,13.20
2018-03-30T10:26:53.822Z,13.20
2018-03-30T10:29:20.332Z,13.40
2018-03-30T10:31:46.882Z,13.40
2018-03-30T10:34:13.126Z,13.50
2018-03-30T10:36:39.402Z,13.60
2018-03-30T10:39:05.693Z,13.50
2018-03-30T10:41:32.708Z,13.60
2018-03-30T10:43:59.655Z,13.70
2018-03-30T10:46:26.659Z,13.80
2018-03-30T10:48:53.446Z,13.80
2018-03-30T10:51:20.913Z,13.90
2018-03-30T10:53:48.482Z,13.90
2018-03-30T10:56:15.479Z,14.00
2018-03-30T10:58:41.717Z,14.00
2018-03-30T11:01:08.006Z,14.00
2018-03-30T11:03:35.674Z,14.10
2018-03-30T11:06:03.221Z,14.10
2018-03-30T11:08:29.467Z,14.10
2018-03-30T11:10:56.514Z,14.40
2018-03-30T11:13:23.878Z,14.40
2018-03-30T11:15:50.901Z,14.60
2018-03-30T11:18:17.678Z,14.50
2018-03-30T11:20:44.686Z,14.50
2018-03-30T11:23:10.941Z,14.50
2018-03-30T11:25:37.210Z,14.50
2018-03-30T11:28:03.467Z,14.50
2018-03-30T11:30:29.819Z,14.60
2018-03-30T11:32:56.413Z,14.60
2018-03-30T11:35:23.402Z,14.70
2018-03-30T11:37:49.667Z,14.70
2018-03-30T11:40:16.230Z,14.80
2018-03-30T11:42:42.710Z,14.90
2018-03-30T11:45:09.609Z,15.00
2018-03-30T11:47:36.840Z,15.10
2018-03-30T11:50:04.101Z,15.20
2018-03-30T11:52:31.251Z,15.40
2018-03-30T11:54:57.611Z,15.50
2018-03-30T11:57:23.987Z,15.50
2018-03-30T11:59:51.075Z,15.50
2018-03-30T12:02:18.157Z,15.50
2018-03-30T12:04:44.488Z,15.50
2018-03-30T12:07:11.728Z,15.60
2018-03-30T12:09:38.036Z,15.50
2018-03-30T12:12:04.376Z,15.70
2018-03-30T12:14:31.040Z,15.70
2018-03-30T12:16:58.091Z,15.80
2018-03-30T12:19:24.414Z,15.60
2018-03-30T12:21:50.731Z,15.70
2018-03-30T12:24:17.312Z,15.60
2018-03-30T12:26:43.627Z,15.70
2018-03-30T12:29:10.043Z,15.80
2018-03-30T12:31:36.723Z,15.90
2018-03-30T12:34:03.080Z,16.00
2018-03-30T12:36:29.403Z,16.00
2018-03-30T12:38:56.272Z,16.10
2018-03-30T12:41:23.511Z,16.20
2018-03-30T12:43:49.835Z,16.30
2018-03-30T12:46:17.046Z,16.50
2018-03-30T12:48:45.172Z,16.60
2018-03-30T12:51:12.541Z,16.60
2018-03-30T12:53:38.851Z,16.70
2018-03-30T12:56:05.162Z,16.40
2018-03-30T12:58:32.778Z,16.80
2018-03-30T13:00:59.112Z,16.80
2018-03-30T13:03:25.436Z,17.00
2018-03-30T13:05:52.851Z,17.00
2018-03-30T13:08:19.915Z,17.00
2018-03-30T13:10:46.232Z,17.10
2018-03-30T13:13:13.551Z,16.90
2018-03-30T13:15:40.920Z,16.90
2018-03-30T13:18:07.284Z,16.90
2018-03-30T13:20:34.340Z,16.80
2018-03-30T13:23:01.494Z,16.90
2018-03-30T13:25:28.556Z,17.00
2018-03-30T13:27:55.705Z,17.00
2018-03-30T13:30:23.043Z,17.20
2018-03-30T13:32:49.368Z,17.20
2018-03-30T13:35:16.523Z,17.10
2018-03-30T13:37:42.839Z,17.30
2018-03-30T13:40:09.152Z,17.40
2018-03-30T13:42:36.419Z,17.30
2018-03-30T13:45:04.627Z,17.50
2018-03-30T13:47:31.987Z,17.40
2018-03-30T13:49:58.412Z,17.30
2018-03-30T13:52:32.440Z,17.10
2018-03-30T13:54:59.600Z,17.00
2018-03-30T13:57:30.632Z,17.00
2018-03-30T13:59:57.011Z,16.90
2018-03-30T14:02:38.084Z,16.70
2018-03-30T14:08:07.767Z,16.40
2018-03-30T14:10:35.744Z,16.30
2018-03-30T14:13:04.606Z,16.70
2018-03-30T14:15:32.795Z,17.00
2018-03-30T14:18:03.159Z,16.80
2018-03-30T14:20:34.592Z,17.10
2018-03-30T14:23:12.907Z,17.10
2018-03-30T14:25:42.003Z,17.20
2018-03-30T14:28:28.028Z,17.40
2018-03-30T14:30:56.275Z,16.80
2018-03-30T14:33:24.411Z,16.70
2018-03-30T14:36:02.339Z,16.50
2018-03-30T14:38:36.608Z,16.40
2018-03-30T14:41:03.812Z,16.20
2018-03-30T14:43:31.956Z,16.20
2018-03-30T14:46:06.020Z,16.10
2018-03-30T14:48:35.727Z,16.20
2018-03-30T14:51:08.573Z,16.20
2018-03-30T14:53:36.588Z,16.20
2018-03-30T14:56:15.719Z,16.40
2018-03-30T14:58:45.811Z,16.50
2018-03-30T15:01:14.145Z,16.70
2018-03-30T15:03:59.588Z,16.50
2018-03-30T15:06:28.785Z,16.50
2018-03-30T15:12:19.929Z,16.30
2018-03-30T15:15:12.760Z,16.20
2018-03-30T15:17:40.844Z,16.10
2018-03-30T15:20:14.464Z,15.70
2018-03-30T15:22:53.440Z,15.60
2018-03-30T15:25:24.725Z,15.60
2018-03-30T15:27:53.658Z,15.40
2018-03-30T15:30:30.201Z,15.40
2018-03-30T15:33:02.606Z,15.30
2018-03-30T15:35:46.156Z,15.20
2018-03-30T15:38:13.515Z,15.20
2018-03-30T15:40:39.993Z,15.20
2018-03-30T15:43:08.810Z,15.10
2018-03-30T15:45:54.543Z,15.00
2018-03-30T15:48:21.676Z,15.00
2018-03-30T15:50:49.711Z,14.90
2018-03-30T15:53:17.328Z,14.90
2018-03-30T15:55:45.632Z,14.90
2018-03-30T15:58:13.471Z,14.80
2018-03-30T16:00:39.827Z,14.80
2018-03-30T16:03:06.172Z,14.70
2018-03-30T16:05:33.508Z,14.70
2018-03-30T16:08:00.801Z,14.70
2018-03-30T16:10:38.968Z,14.70
2018-03-30T16:13:05.384Z,14.70
2018-03-30T16:15:31.747Z,14.60
2018-03-30T16:17:58.495Z,14.60
2018-03-30T16:20:24.635Z,14.60
2018-03-30T16:22:50.851Z,14.60
2018-03-30T16:25:17.299Z,14.50
2018-03-30T16:27:43.407Z,14.50
2018-03-30T16:30:09.531Z,14.40
2018-03-30T16:32:36.212Z,14.40
2018-03-30T16:35:04.689Z,14.30
2018-03-30T16:37:31.747Z,14.30
2018-03-30T16:39:57.870Z,14.30
2018-03-30T16:42:23.980Z,14.20
2018-03-30T16:44:51.059Z,14.20
2018-03-30T16:47:18.008Z,14.10
2018-03-30T16:49:44.964Z,14.00
2018-03-30T16:52:11.912Z,13.90
2018-03-30T16:54:38.691Z,13.80
2018-03-30T16:57:05.611Z,13.60
2018-03-30T16:59:32.580Z,13.60
2018-03-30T17:02:00.272Z,13.40
2018-03-30T17:04:26.421Z,13.40
2018-03-30T17:06:53.310Z,13.30
2018-03-30T17:09:20.252Z,13.10
2018-03-30T17:11:46.369Z,13.00
2018-03-30T17:14:12.486Z,12.90
2018-03-30T17:16:38.957Z,12.70
2018-03-30T17:19:05.099Z,12.60
2018-03-30T17:21:31.353Z,12.50
2018-03-30T17:23:57.511Z,12.40
2018-03-30T17:26:23.625Z,12.30
2018-03-30T17:28:50.495Z,12.20
2018-03-30T17:31:16.915Z,12.10
2018-03-30T17:33:44.828Z,12.10
2018-03-30T17:36:10.956Z,12.10
2018-03-30T17:38:38.340Z,12.10
2018-03-30T17:41:04.475Z,12.10
2018-03-30T17:43:31.146Z,12.20
2018-03-30T17:45:58.987Z,12.30
2018-03-30T17:48:25.837Z,12.30
2018-03-30T17:50:52.787Z,12.40
2018-03-30T17:53:19.717Z,12.40
2018-03-30T17:55:46.587Z,12.50
2018-03-30T17:58:12.756Z,12.50
2018-03-30T18:00:39.650Z,12.70
2018-03-30T18:03:06.108Z,12.70
2018-03-30T18:05:32.224Z,12.70
2018-03-30T18:07:59.291Z,12.80
2018-03-30T18:10:26.877Z,12.80
2018-03-30T18:12:52.991Z,12.70
2018-03-30T18:15:19.112Z,12.60
2018-03-30T18:17:45.561Z,12.60
2018-03-30T18:20:11.683Z,12.60
2018-03-30T18:22:38.644Z,12.50
2018-03-30T18:25:04.849Z,12.50
2018-03-30T18:27:30.955Z,12.40
2018-03-30T18:29:57.108Z,12.40
2018-03-30T18:32:24.192Z,12.30
2018-03-30T18:34:50.364Z,12.30
2018-03-30T18:37:18.011Z,12.10
2018-03-30T18:39:44.943Z,12.10
2018-03-30T18:42:11.099Z,12.00
2018-03-30T18:44:38.019Z,11.90
2018-03-30T18:47:04.872Z,11.80
2018-03-30T18:49:31.820Z,11.80
2018-03-30T18:51:58.812Z,11.70
2018-03-30T18:54:26.645Z,11.50
2018-03-30T18:56:53.698Z,11.50
2018-03-30T18:59:19.808Z,11.50
2018-03-30T19:01:45.972Z,11.40
2018-03-30T19:04:12.114Z,11.30
2018-03-30T19:06:39.079Z,11.20
2018-03-30T19:09:07.532Z,11.00
2018-03-30T19:11:33.656Z,11.00
2018-03-30T19:13:59.768Z,10.90
2018-03-30T19:16:26.232Z,10.80
2018-03-30T19:18:52.360Z,10.80
2018-03-30T19:21:18.573Z,10.70
2018-03-30T19:23:45.444Z,10.70
2018-03-30T19:26:11.629Z,10.60
2018-03-30T19:28:39.237Z,10.60
2018-03-30T19:31:05.408Z,10.60
2018-03-30T19:33:32.265Z,10.50
2018-03-30T19:35:59.451Z,10.50
2018-03-30T19:38:26.225Z,10.50
2018-03-30T19:40:53.080Z,10.50
2018-03-30T19:43:19.956Z,10.40
2018-03-30T19:45:47.589Z,10.20
2018-03-30T19:48:14.464Z,10.20
2018-03-30T19:50:41.499Z,10.20
2018-03-30T19:53:07.727Z,10.10
2018-03-30T19:55:33.840Z,10.00
2018-03-30T19:58:00.012Z,10.00
2018-03-30T20:00:26.140Z,10.00
2018-03-30T20:02:52.389Z,10.00
2018-03-30T20:05:19.508Z,10.00
2018-03-30T20:07:46.468Z,10.00
2018-03-30T20:10:13.508Z,10.00
2018-03-30T20:12:39.640Z,10.10
2018-03-30T20:15:05.780Z,10.20
2018-03-30T20:17:32.219Z,10.20
2018-03-30T20:19:58.370Z,10.20
2018-03-30T20:22:25.214Z,10.40
2018-03-30T20:24:51.363Z,10.40
2018-03-30T20:27:18.993Z,10.50
2018-03-30T20:29:45.113Z,10.50
2018-03-30T20:32:11.228Z,10.50
2018-03-30T20:34:37.697Z,10.50
2018-03-30T20:37:04.848Z,10.50
2018-03-30T20:39:32.860Z,10.50
2018-03-30T20:42:01.344Z,10.50
2018-03-30T20:44:28.976Z,10.50
2018-03-30T20:46:55.824Z,10.50
2018-03-30T20:49:21.962Z,10.50
2018-03-30T20:51:49.826Z,10.50
2018-03-30T20:54:16.725Z,10.50
2018-03-30T20:56:43.569Z,10.50
2018-03-30T20:59:10.492Z,10.50
2018-03-30T21:01:37.588Z,10.50
2018-03-30T21:04:03.699Z,10.50
2018-03-30T21:06:31.324Z,10.50
2018-03-30T21:08:58.475Z,10.40
2018-03-30T21:11:24.687Z,10.50
2018-03-30T21:13:50.811Z,10.40
2018-03-30T21:16:17.179Z,10.40
2018-03-30T21:18:43.940Z,10.30
2018-03-30T21:21:10.196Z,10.30
2018-03-30T21:23:37.827Z,10.30
2018-03-30T21:26:03.949Z,10.30
2018-03-30T21:28:30.069Z,10.30
2018-03-30T21:30:56.528Z,10.50
2018-03-30T21:33:22.636Z,10.60
2018-03-30T21:35:49.615Z,10.70
2018-03-30T21:38:16.467Z,10.70
2018-03-30T21:40:43.315Z,10.90
2018-03-30T21:43:10.144Z,10.80
2018-03-30T21:45:37.003Z,10.80
2018-03-30T21:48:03.956Z,10.70
2018-03-30T21:50:30.084Z,10.60
2018-03-30T21:52:57.040Z,10.50
2018-03-30T21:55:23.155Z,10.50
2018-03-30T21:57:49.259Z,10.30
2018-03-30T22:00:15.740Z,10.30
2018-03-30T22:02:41.924Z,10.30
2018-03-30T22:05:08.140Z,10.30
2018-03-30T22:07:35.867Z,10.40
2018-03-30T22:10:04.313Z,10.40
2018-03-30T22:12:30.435Z,10.50
2018-03-30T22:14:57.296Z,10.60
2018-03-30T22:17:23.676Z,10.60
2018-03-30T22:19:49.788Z,10.60
2018-03-30T22:22:16.759Z,10.60
2018-03-30T22:24:42.867Z,10.60
2018-03-30T22:27:09.033Z,10.50
2018-03-30T22:29:35.467Z,10.60
2018-03-30T22:32:02.408Z,10.70
2018-03-30T22:34:29.678Z,10.70
2018-03-30T22:36:56.520Z,10.60
2018-03-30T22:39:23.671Z,10.60
2018-03-30T22:41:49.792Z,10.50
2018-03-30T22:44:16.767Z,10.40
2018-03-30T22:46:43.699Z,10.50
2018-03-30T22:49:09.844Z,10.40
2018-03-30T22:51:36.803Z,10.50
2018-03-30T22:54:02.919Z,10.40
2018-03-30T22:56:29.872Z,10.30
2018-03-30T22:58:56.003Z,10.30
2018-03-30T23:01:22.137Z,10.30
2018-03-30T23:03:48.571Z,10.30
2018-03-30T23:06:15.523Z,10.30
2018-03-30T23:08:42.987Z,10.30
2018-03-30T23:11:10.144Z,10.20
2018-03-30T23:13:36.260Z,10.20
2018-03-30T23:16:02.369Z,10.10
2018-03-30T23:18:29.459Z,10.10
2018-03-30T23:20:55.583Z,10.40
2018-03-30T23:23:21.692Z,10.60
2018-03-30T23:25:48.160Z,10.90
2018-03-30T23:28:14.272Z,11.10
2018-03-30T23:30:41.347Z,11.30
2018-03-30T23:33:08.907Z,11.40
2018-03-30T23:35:35.032Z,11.30
2018-03-30T23:38:01.141Z,11.30
2018-03-30T23:40:27.292Z,11.30
2018-03-30T23:42:53.413Z,11.40
2018-03-30T23:45:20.488Z,11.40
2018-03-30T23:47:47.243Z,11.40
2018-03-30T23:50:13.349Z,11.20
2018-03-30T23:52:40.107Z,11.00
2018-03-30T23:55:06.247Z,10.90
2018-03-30T23:57:32.370Z,10.80
2018-03-30T23:59:58.818Z,10.70
